createdAt,value
2022-08-14T08:49:18.006Z,82
2022-08-14T08:50:22.959Z,45
2022-08-14T08:51:18.011Z,46
2022-08-14T09:51:18.060Z,37
2022-08-14T09:52:23.922Z,38
2022-08-14T09:53:18.634Z,44
2022-08-14T09:54:22.892Z,80
2022-08-14T09:55:17.988Z,75
2022-08-14T09:56:24.195Z,72
2022-08-14T09:57:18.000Z,27
2022-08-14T09:58:19.525Z,19
2022-08-14T09:59:17.994Z,42
2022-08-14T10:00:28.898Z,80
2022-08-14T10:01:17.997Z,48
2022-08-14T10:02:18.017Z,79
2022-08-14T10:03:18.270Z,80
2022-08-14T10:04:35.178Z,79
2022-08-14T10:05:18.041Z,40
2022-08-14T10:06:19.196Z,38
2022-08-14T10:07:17.998Z,42
2022-08-14T10:08:25.245Z,60
2022-08-14T10:09:17.994Z,65
2022-08-14T10:10:23.245Z,75
2022-08-14T10:11:18.056Z,34
2022-08-14T10:12:18.787Z,25
2022-08-14T10:13:18.203Z,77
2022-08-14T10:14:21.052Z,72
2022-08-14T10:15:18.060Z,77
2022-08-14T10:16:21.156Z,40
2022-08-14T10:17:18.050Z,62
2022-08-14T10:18:18.699Z,58
2022-08-14T10:19:18.008Z,52
2022-08-14T10:20:40.047Z,53
2022-08-14T10:21:18.018Z,26
2022-08-14T10:23:13.782Z,58
2022-08-14T10:23:18.189Z,59
2022-08-14T10:24:18.062Z,62
2022-08-14T10:25:18.064Z,66
2022-08-14T10:26:22.505Z,38
2022-08-14T10:27:18.008Z,67
2022-08-14T10:28:38.989Z,33
2022-08-14T10:29:23.592Z,28
2022-08-14T10:30:22.320Z,65
2022-08-14T10:31:18.067Z,67
2022-08-14T10:32:28.168Z,38
2022-08-14T10:33:18.256Z,72
2022-08-14T10:34:18.005Z,71
2022-08-14T10:35:18.055Z,68
2022-08-14T10:37:18.385Z,42
2022-08-14T10:38:18.205Z,82
2022-08-14T10:39:18.050Z,36
2022-08-14T10:40:37.079Z,63
2022-08-14T10:41:18.117Z,67
2022-08-14T10:42:18.419Z,60
2022-08-14T10:43:18.300Z,61
2022-08-14T10:44:21.128Z,67
2022-08-14T10:45:18.100Z,34
2022-08-14T10:46:59.415Z,71
2022-08-14T10:47:37.634Z,38
2022-08-14T10:48:24.187Z,40
2022-08-14T10:49:18.065Z,25
2022-08-14T10:50:18.067Z,60
2022-08-14T10:51:18.027Z,32
2022-08-14T10:52:18.070Z,30
2022-08-14T10:53:18.218Z,30
2022-08-14T10:54:35.646Z,67
2022-08-14T10:55:18.023Z,65
2022-08-14T10:56:22.134Z,32
2022-08-14T10:57:18.085Z,60
2022-08-14T10:58:18.203Z,28
2022-08-14T10:59:18.077Z,36
2022-08-14T11:00:20.469Z,69
2022-08-14T11:01:18.081Z,76
2022-08-14T11:02:18.030Z,73
2022-08-14T11:03:19.969Z,71
2022-08-14T11:04:18.070Z,62
2022-08-14T11:05:18.031Z,41
2022-08-14T11:06:18.083Z,46
2022-08-14T11:07:21.300Z,48
2022-08-14T11:08:18.208Z,47
2022-08-14T11:09:18.085Z,59
2022-08-14T11:10:18.087Z,29
2022-08-14T11:11:18.086Z,28
2022-08-14T11:12:33.435Z,54
2022-08-14T11:13:18.229Z,12
2022-08-14T11:14:22.128Z,42
2022-08-14T11:15:18.093Z,52
2022-08-14T11:16:18.092Z,21
2022-08-14T11:17:20.868Z,20
2022-08-14T11:18:20.222Z,13
2022-08-14T11:19:18.042Z,37
2022-08-14T11:20:18.037Z,40
2022-08-14T11:21:18.091Z,21
2022-08-14T11:22:52.982Z,14
2022-08-14T11:23:18.232Z,42
2022-08-14T11:24:50.345Z,14
2022-08-14T11:25:18.047Z,15
2022-08-14T11:26:18.047Z,22
2022-08-14T11:27:18.953Z,48
2022-08-14T11:28:19.349Z,16
2022-08-14T11:29:18.129Z,21
2022-08-14T11:30:49.756Z,19
2022-08-14T11:31:18.112Z,51
2022-08-14T11:32:18.058Z,51
2022-08-14T11:33:18.294Z,23
2022-08-14T11:34:30.041Z,46
2022-08-14T11:35:18.059Z,47
2022-08-14T11:36:18.792Z,47
2022-08-14T11:37:23.724Z,22
2022-08-14T11:38:18.233Z,17
2022-08-14T11:39:18.111Z,42
2022-08-14T11:40:19.884Z,27
2022-08-14T11:41:18.100Z,22
2022-08-14T11:42:55.974Z,22
2022-08-14T11:43:18.240Z,53
2022-08-14T11:44:46.152Z,47
2022-08-14T11:45:18.883Z,39
2022-08-14T11:46:29.472Z,44
2022-08-14T11:47:18.106Z,42
2022-08-14T11:48:58.946Z,61
2022-08-14T11:49:18.941Z,39
2022-08-14T11:50:25.235Z,42
2022-08-14T11:51:18.110Z,46
2022-08-14T11:52:18.107Z,50
2022-08-14T11:53:18.270Z,53
2022-08-14T11:54:19.719Z,51
2022-08-14T11:55:20.171Z,23
2022-08-14T11:56:18.114Z,63
2022-08-14T11:57:18.615Z,38
2022-08-14T11:58:24.044Z,63
2022-08-14T11:59:18.112Z,56
2022-08-14T12:00:19.644Z,32
2022-08-14T12:01:18.065Z,69
2022-08-14T12:02:35.950Z,37
2022-08-14T12:03:22.688Z,38
2022-08-14T12:04:21.889Z,41
2022-08-14T12:06:28.279Z,90
2022-08-14T12:07:18.096Z,90
2022-08-14T12:08:24.362Z,93
2022-08-14T12:09:18.122Z,108
2022-08-14T12:10:25.383Z,105
2022-08-14T12:11:18.124Z,103
2022-08-14T12:12:35.421Z,53
2022-08-14T12:13:18.249Z,84
2022-08-14T12:14:31.239Z,45
2022-08-14T12:15:18.087Z,42
2022-08-14T12:16:20.534Z,76
2022-08-14T12:17:22.319Z,76
2022-08-14T12:18:19.425Z,38
2022-08-14T12:19:18.073Z,87
2022-08-14T12:20:29.769Z,82
2022-08-14T12:21:19.201Z,48
2022-08-14T12:22:29.629Z,42
2022-08-14T12:23:18.263Z,95
2022-08-14T12:24:31.933Z,76
2022-08-14T12:25:18.086Z,41
2022-08-14T12:26:31.719Z,48
2022-08-14T12:27:18.415Z,96
2022-08-14T12:28:26.862Z,96
2022-08-14T12:29:18.140Z,89
2022-08-14T12:30:21.027Z,89
2022-08-14T12:31:20.557Z,106
2022-08-14T12:32:18.160Z,108
2022-08-14T12:33:18.300Z,127
2022-08-14T12:34:20.232Z,116
2022-08-14T12:35:18.085Z,119
2022-08-14T12:36:18.425Z,119
2022-08-14T12:37:18.085Z,121
2022-08-14T12:38:19.660Z,143
2022-08-14T12:39:18.093Z,90
2022-08-14T12:41:20.876Z,131
2022-08-14T12:42:27.489Z,217
2022-08-14T12:43:18.266Z,200
2022-08-14T12:44:20.345Z,233
2022-08-14T12:45:18.133Z,247
2022-08-14T12:46:22.536Z,236
2022-08-14T12:47:18.093Z,147
2022-08-14T12:48:20.952Z,152
2022-08-14T12:49:18.166Z,258
2022-08-14T12:53:18.270Z,221
2022-08-14T12:54:19.334Z,239
2022-08-14T12:56:22.933Z,123
2022-08-14T12:57:20.319Z,111
2022-08-14T12:58:29.098Z,96
2022-08-14T13:00:23.275Z,138
2022-08-14T13:04:18.761Z,78
2022-08-14T13:07:18.127Z,75
2022-08-14T13:08:33.134Z,76
2022-08-14T13:10:46.422Z,32
2022-08-14T13:11:18.111Z,73
2022-08-14T13:13:18.555Z,44
2022-08-14T13:14:18.112Z,34
2022-08-14T13:18:18.306Z,55
2022-08-14T13:20:23.587Z,112
2022-08-14T13:22:19.617Z,74
2022-08-14T13:23:18.287Z,130
2022-08-14T13:24:18.103Z,164
2022-08-14T13:25:18.114Z,164
2022-08-14T13:26:18.118Z,164
2022-08-14T13:29:18.123Z,201
2022-08-14T13:33:18.302Z,102
2022-08-14T13:35:18.188Z,78
2022-08-14T13:37:18.116Z,106
2022-08-14T13:38:18.313Z,48
2022-08-14T13:40:18.121Z,72
2022-08-14T13:41:18.121Z,30
2022-08-14T13:42:18.157Z,25
2022-08-14T13:43:18.367Z,44
2022-08-14T13:45:18.122Z,32
2022-08-14T13:46:18.137Z,25
2022-08-14T13:48:19.232Z,23
2022-08-14T13:51:18.127Z,21
2022-08-14T13:52:48.456Z,13
2022-08-14T13:54:18.127Z,24
2022-08-14T13:59:20.341Z,34
2022-08-14T20:16:20.896Z,784
2022-08-14T20:16:31.735Z,596
2022-08-14T20:17:18.395Z,638
2022-08-14T20:18:39.234Z,815
2022-08-14T20:19:18.345Z,776
2022-08-14T20:20:20.841Z,621
2022-08-14T20:21:18.363Z,629
2022-08-14T20:22:34.871Z,602
2022-08-14T20:23:18.546Z,678
2022-08-14T20:24:30.682Z,798
2022-08-14T20:25:18.351Z,596
2022-08-14T20:26:31.131Z,798
2022-08-14T20:27:18.357Z,798
2022-08-14T20:28:29.129Z,529
2022-08-14T20:29:18.395Z,783
2022-08-14T20:30:33.313Z,610
2022-08-14T20:31:18.356Z,790
2022-08-14T20:32:18.399Z,824
2022-08-14T20:33:18.570Z,615
2022-08-14T20:34:19.417Z,638
2022-08-14T20:35:18.358Z,854
2022-08-14T20:36:25.895Z,638
2022-08-14T20:37:22.221Z,621
2022-08-14T20:38:28.838Z,846
2022-08-14T20:39:18.544Z,846
2022-08-14T20:40:23.218Z,652
2022-08-14T20:41:18.367Z,858
2022-08-14T20:42:19.081Z,753
2022-08-14T20:43:18.550Z,846
2022-08-14T20:44:20.854Z,598
2022-08-14T20:45:18.358Z,687
2022-08-14T20:46:18.359Z,765
2022-08-14T20:47:18.440Z,629
2022-08-14T20:48:18.551Z,801
2022-08-14T20:49:18.671Z,831
2022-08-14T20:50:20.327Z,604
2022-08-14T20:51:18.722Z,846
2022-08-14T20:52:18.658Z,809
2022-08-14T20:53:18.548Z,854
2022-08-14T20:54:18.367Z,891
2022-08-14T20:55:18.415Z,626
2022-08-14T20:56:29.127Z,638
2022-08-14T20:57:18.737Z,582
2022-08-14T20:58:44.775Z,870
2022-08-14T20:59:18.415Z,515
2022-08-14T21:00:18.368Z,658
2022-08-14T21:01:18.404Z,698
2022-08-14T21:02:24.164Z,647
2022-08-14T21:03:18.563Z,824
2022-08-14T21:04:18.445Z,838
2022-08-14T21:05:19.672Z,610
2022-08-14T21:06:19.562Z,891
2022-08-14T21:07:23.694Z,832
2022-08-14T21:08:22.707Z,798
2022-08-14T21:09:18.422Z,824
2022-08-14T21:10:32.829Z,639
2022-08-14T21:11:18.370Z,635
2022-08-14T21:12:33.613Z,863
2022-08-14T21:13:26.868Z,832
2022-08-14T21:14:20.296Z,666
2022-08-14T21:15:18.380Z,635
2022-08-14T21:16:30.752Z,850
2022-08-14T21:17:18.386Z,875
2022-08-14T21:18:18.571Z,578
2022-08-14T21:19:18.384Z,638
2022-08-14T21:20:21.425Z,854
2022-08-14T21:21:18.427Z,883
2022-08-14T21:22:18.420Z,645
2022-08-14T21:23:18.563Z,641
2022-08-14T21:24:22.877Z,626
2022-08-14T21:25:20.724Z,641
2022-08-14T21:26:18.434Z,832
2022-08-14T21:27:20.535Z,629
2022-08-14T21:28:20.888Z,652
2022-08-14T21:29:18.391Z,870
2022-08-14T21:30:20.959Z,645
2022-08-14T21:31:18.427Z,776
2022-08-14T21:32:20.478Z,652
2022-08-14T21:33:18.569Z,824
2022-08-14T21:35:18.396Z,881
2022-08-14T21:36:21.845Z,676
2022-08-14T21:37:18.386Z,881
2022-08-14T21:38:18.680Z,846
2022-08-14T21:39:18.556Z,692
2022-08-14T21:40:18.919Z,680
2022-08-14T21:41:42.012Z,910
2022-08-14T21:42:18.436Z,905
2022-08-14T21:43:18.895Z,881
2022-08-14T21:44:20.267Z,635
2022-08-14T21:46:18.440Z,832
2022-08-14T21:48:18.576Z,848
2022-08-14T21:49:18.446Z,863
2022-08-14T21:50:39.009Z,867
2022-08-14T21:51:53.150Z,644
2022-08-14T21:52:48.980Z,867
2022-08-14T21:53:18.580Z,832
2022-08-14T21:54:30.103Z,632
2022-08-14T21:57:18.391Z,846
2022-08-14T21:58:46.284Z,846
2022-08-14T22:00:30.704Z,654
2022-08-14T22:01:18.490Z,865
2022-08-14T22:02:32.129Z,641
2022-08-14T22:03:18.646Z,854
2022-08-14T22:04:32.792Z,838
2022-08-14T22:06:19.943Z,616
2022-08-14T22:07:18.412Z,638
2022-08-14T22:08:18.650Z,832
2022-08-14T22:09:21.446Z,863
2022-08-14T22:10:22.835Z,841
2022-08-14T22:13:18.589Z,660
2022-08-14T22:17:00.376Z,824
2022-08-14T22:18:19.823Z,598
2022-08-14T22:19:18.409Z,893
2022-08-14T22:20:18.410Z,921
2022-08-14T22:21:18.409Z,893
2022-08-14T22:22:18.408Z,872
2022-08-14T22:23:18.590Z,627
2022-08-14T22:24:26.053Z,627
2022-08-14T22:26:21.774Z,854
2022-08-14T22:28:18.593Z,846
2022-08-14T22:33:18.618Z,632
2022-08-14T22:34:19.334Z,824
2022-08-14T22:35:18.419Z,832
2022-08-14T22:36:24.915Z,824
2022-08-14T22:37:18.415Z,749
2022-08-14T22:38:35.110Z,798
2022-08-14T22:39:18.448Z,698
2022-08-14T22:40:51.522Z,878
2022-08-14T22:43:18.599Z,652
2022-08-14T22:44:18.427Z,607
2022-08-14T22:45:18.417Z,760
2022-08-14T22:46:20.528Z,822
2022-08-14T22:47:18.432Z,551
2022-08-14T22:48:18.620Z,822
2022-08-14T22:53:18.608Z,824
2022-08-14T22:57:18.423Z,824
2022-08-14T22:58:18.616Z,604
2022-08-14T22:59:18.427Z,824
2022-08-14T23:00:18.445Z,846
2022-08-14T23:01:18.429Z,647
2022-08-14T23:05:18.434Z,715
2022-08-14T23:07:01.768Z,723
2022-08-14T23:08:57.491Z,742
2022-08-14T23:10:31.341Z,541
2022-08-14T23:13:18.620Z,747
2022-08-14T23:14:23.801Z,557
2022-08-14T23:15:18.435Z,573
2022-08-14T23:16:19.559Z,565
2022-08-14T23:18:18.651Z,707
2022-08-14T23:23:22.258Z,626
2022-08-14T23:28:33.007Z,771
2022-08-14T23:36:28.744Z,753
2022-08-14T23:38:24.713Z,760
2022-08-14T23:53:28.709Z,598
